Аэропорт: Кривой Рог. Кривой Рог

ICAO: UKDR

METAR:
2018/05/20 23:00
UKDR 202300Z 36004MPS 320V040 CAVOK 12/06 Q1017 R36/09//70 NOSIG
METAR:
2018/05/20 18:00
TAF UKDR 201708Z 2018/2118 01006MPS 9999 SCT015 SCT030CB 
      TEMPO 2020/2106 2100 BR BKN007